sensor_id;sensor_type;location;lat;lon;timestamp;pressure;altitude;pressure_sealevel;temperature;humidity
64841;BME280;51307;52.162;7.560;2023-12-28T00:00:38;100368.88;;;7.80;81.52
64841;BME280;51307;52.162;7.560;2023-12-28T00:03:04;100384.19;;;7.78;81.55
64841;BME280;51307;52.162;7.560;2023-12-28T00:05:29;100381.91;;;7.83;81.28
64841;BME280;51307;52.162;7.560;2023-12-28T00:07:55;100394.31;;;7.74;81.86
64841;BME280;51307;52.162;7.560;2023-12-28T00:10:27;100386.69;;;7.80;81.84
64841;BME280;51307;52.162;7.560;2023-12-28T00:12:53;100368.66;;;7.91;81.09
64841;BME280;51307;52.162;7.560;2023-12-28T00:15:18;100383.06;;;7.81;81.93
64841;BME280;51307;52.162;7.560;2023-12-28T00:17:44;100386.00;;;7.96;81.82
64841;BME280;51307;52.162;7.560;2023-12-28T00:20:10;100377.31;;;7.94;82.08
64841;BME280;51307;52.162;7.560;2023-12-28T00:22:36;100373.34;;;7.98;82.33
64841;BME280;51307;52.162;7.560;2023-12-28T00:25:03;100382.44;;;7.87;82.93
64841;BME280;51307;52.162;7.560;2023-12-28T00:27:29;100375.72;;;7.83;83.43
64841;BME280;51307;52.162;7.560;2023-12-28T00:29:54;100376.97;;;7.88;83.61
64841;BME280;51307;52.162;7.560;2023-12-28T00:32:20;100386.69;;;7.80;84.59
64841;BME280;51307;52.162;7.560;2023-12-28T00:34:45;100391.72;;;7.83;84.01
64841;BME280;51307;52.162;7.560;2023-12-28T00:37:11;100392.84;;;7.80;83.85
64841;BME280;51307;52.162;7.560;2023-12-28T00:39:36;100386.09;;;8.04;82.95
64841;BME280;51307;52.162;7.560;2023-12-28T00:42:04;100392.16;;;7.96;83.15
64841;BME280;51307;52.162;7.560;2023-12-28T00:44:29;100381.06;;;7.83;83.53
64841;BME280;51307;52.162;7.560;2023-12-28T00:46:55;100392.56;;;8.01;82.75
64841;BME280;51307;52.162;7.560;2023-12-28T00:49:20;100387.75;;;7.87;83.09
64841;BME280;51307;52.162;7.560;2023-12-28T00:51:45;100388.53;;;7.97;82.86
64841;BME280;51307;52.162;7.560;2023-12-28T00:54:11;100385.09;;;8.05;82.38
64841;BME280;51307;52.162;7.560;2023-12-28T00:56:36;100384.63;;;8.09;82.21
64841;BME280;51307;52.162;7.560;2023-12-28T00:59:02;100399.09;;;8.07;82.44
64841;BME280;51307;52.162;7.560;2023-12-28T01:01:28;100408.09;;;7.88;83.08
64841;BME280;51307;52.162;7.560;2023-12-28T01:03:56;100402.06;;;8.04;82.29
64841;BME280;51307;52.162;7.560;2023-12-28T01:06:21;100402.81;;;7.96;82.39
64841;BME280;51307;52.162;7.560;2023-12-28T01:08:47;100399.94;;;8.07;82.29
64841;BME280;51307;52.162;7.560;2023-12-28T01:11:12;100406.94;;;8.08;82.11
64841;BME280;51307;52.162;7.560;2023-12-28T01:13:38;100419.03;;;8.03;82.39
64841;BME280;51307;52.162;7.560;2023-12-28T01:16:03;100408.91;;;8.06;82.35
64841;BME280;51307;52.162;7.560;2023-12-28T01:18:29;100413.19;;;7.99;82.55
64841;BME280;51307;52.162;7.560;2023-12-28T01:20:55;100421.19;;;7.99;82.51
64841;BME280;51307;52.162;7.560;2023-12-28T01:23:20;100418.88;;;8.04;82.62
64841;BME280;51307;52.162;7.560;2023-12-28T01:25:46;100428.50;;;8.15;82.30
64841;BME280;51307;52.162;7.560;2023-12-28T01:28:12;100431.91;;;7.89;82.48
64841;BME280;51307;52.162;7.560;2023-12-28T01:30:37;100435.09;;;8.11;82.04
64841;BME280;51307;52.162;7.560;2023-12-28T01:33:03;100443.41;;;8.08;82.15
64841;BME280;51307;52.162;7.560;2023-12-28T01:35:29;100448.72;;;8.08;82.26
64841;BME280;51307;52.162;7.560;2023-12-28T01:37:55;100443.94;;;8.12;81.99
64841;BME280;51307;52.162;7.560;2023-12-28T01:40:20;100446.91;;;8.08;82.21
64841;BME280;51307;52.162;7.560;2023-12-28T01:42:46;100446.00;;;8.00;82.45
64841;BME280;51307;52.162;7.560;2023-12-28T01:45:11;100455.59;;;8.11;82.26
64841;BME280;51307;52.162;7.560;2023-12-28T01:47:37;100460.69;;;7.86;82.64
64841;BME280;51307;52.162;7.560;2023-12-28T01:50:06;100469.22;;;8.07;82.37
64841;BME280;51307;52.162;7.560;2023-12-28T01:52:31;100470.19;;;8.24;81.75
64841;BME280;51307;52.162;7.560;2023-12-28T01:54:57;100459.91;;;8.30;81.66
64841;BME280;51307;52.162;7.560;2023-12-28T01:57:23;100471.66;;;8.19;82.05
64841;BME280;51307;52.162;7.560;2023-12-28T01:59:50;100471.66;;;8.19;82.37
64841;BME280;51307;52.162;7.560;2023-12-28T02:02:16;100468.00;;;8.20;82.11
64841;BME280;51307;52.162;7.560;2023-12-28T02:04:44;100474.69;;;8.24;82.04
64841;BME280;51307;52.162;7.560;2023-12-28T02:07:10;100475.22;;;8.09;82.41
64841;BME280;51307;52.162;7.560;2023-12-28T02:09:36;100479.28;;;8.32;82.09
64841;BME280;51307;52.162;7.560;2023-12-28T02:12:03;100478.13;;;8.34;81.88
64841;BME280;51307;52.162;7.560;2023-12-28T02:14:28;100472.03;;;8.24;82.06
64841;BME280;51307;52.162;7.560;2023-12-28T02:17:03;100478.78;;;8.36;81.95
64841;BME280;51307;52.162;7.560;2023-12-28T02:22:07;100469.66;;;8.39;81.71
64841;BME280;51307;52.162;7.560;2023-12-28T02:25:08;100475.22;;;8.28;82.33
64841;BME280;51307;52.162;7.560;2023-12-28T02:27:43;100486.19;;;8.42;81.79
64841;BME280;51307;52.162;7.560;2023-12-28T02:30:15;100478.41;;;8.31;82.43
64841;BME280;51307;52.162;7.560;2023-12-28T02:32:49;100484.81;;;8.38;82.05
64841;BME280;51307;52.162;7.560;2023-12-28T02:35:33;100486.41;;;8.31;82.59
64841;BME280;51307;52.162;7.560;2023-12-28T02:38:05;100490.53;;;8.44;81.99
64841;BME280;51307;52.162;7.560;2023-12-28T02:40:36;100489.06;;;8.49;81.90
64841;BME280;51307;52.162;7.560;2023-12-28T02:43:06;100493.09;;;8.35;82.14
64841;BME280;51307;52.162;7.560;2023-12-28T02:45:32;100489.59;;;8.53;81.91
64841;BME280;51307;52.162;7.560;2023-12-28T02:47:58;100486.56;;;8.48;82.20
64841;BME280;51307;52.162;7.560;2023-12-28T02:50:23;100488.53;;;8.46;82.19
64841;BME280;51307;52.162;7.560;2023-12-28T02:52:49;100489.69;;;8.43;82.55
64841;BME280;51307;52.162;7.560;2023-12-28T02:55:14;100487.47;;;8.56;82.00
64841;BME280;51307;52.162;7.560;2023-12-28T02:57:40;100484.72;;;8.48;82.21
64841;BME280;51307;52.162;7.560;2023-12-28T03:00:06;100472.97;;;8.59;81.93
64841;BME280;51307;52.162;7.560;2023-12-28T03:02:37;100470.19;;;8.42;82.44
64841;BME280;51307;52.162;7.560;2023-12-28T03:05:06;100469.56;;;8.49;82.13
64841;BME280;51307;52.162;7.560;2023-12-28T03:07:33;100467.69;;;8.41;82.40
64841;BME280;51307;52.162;7.560;2023-12-28T03:09:59;100462.47;;;8.57;81.68
64841;BME280;51307;52.162;7.560;2023-12-28T03:12:25;100468.69;;;8.66;81.05
64841;BME280;51307;52.162;7.560;2023-12-28T03:14:51;100446.38;;;8.67;80.92
64841;BME280;51307;52.162;7.560;2023-12-28T03:17:16;100460.41;;;8.51;81.39
64841;BME280;51307;52.162;7.560;2023-12-28T03:19:42;100454.75;;;8.72;80.89
64841;BME280;51307;52.162;7.560;2023-12-28T03:22:07;100458.13;;;8.56;81.18
64841;BME280;51307;52.162;7.560;2023-12-28T03:24:33;100450.72;;;8.68;80.96
64841;BME280;51307;52.162;7.560;2023-12-28T03:26:58;100456.22;;;8.67;81.03
64841;BME280;51307;52.162;7.560;2023-12-28T03:29:24;100450.66;;;8.60;81.31
64841;BME280;51307;52.162;7.560;2023-12-28T03:31:50;100446.53;;;8.66;80.90
64841;BME280;51307;52.162;7.560;2023-12-28T03:34:16;100445.16;;;8.62;81.49
64841;BME280;51307;52.162;7.560;2023-12-28T03:36:41;100442.34;;;8.63;81.41
64841;BME280;51307;52.162;7.560;2023-12-28T03:39:07;100434.72;;;8.68;81.23
64841;BME280;51307;52.162;7.560;2023-12-28T03:41:33;100436.88;;;8.73;80.98
64841;BME280;51307;52.162;7.560;2023-12-28T03:43:59;100445.53;;;8.67;81.48
64841;BME280;51307;52.162;7.560;2023-12-28T03:46:24;100434.38;;;8.71;81.29
64841;BME280;51307;52.162;7.560;2023-12-28T03:48:50;100439.06;;;8.69;81.56
64841;BME280;51307;52.162;7.560;2023-12-28T03:51:16;100430.91;;;8.71;81.57
64841;BME280;51307;52.162;7.560;2023-12-28T03:53:42;100423.72;;;8.71;81.36
64841;BME280;51307;52.162;7.560;2023-12-28T03:56:08;100432.41;;;8.73;81.87
64841;BME280;51307;52.162;7.560;2023-12-28T03:58:42;100446.00;;;8.62;82.11
64841;BME280;51307;52.162;7.560;2023-12-28T04:01:09;100440.88;;;8.69;81.80
64841;BME280;51307;52.162;7.560;2023-12-28T04:03:35;100433.72;;;8.69;81.91
64841;BME280;51307;52.162;7.560;2023-12-28T04:06:00;100450.38;;;8.71;82.01
64841;BME280;51307;52.162;7.560;2023-12-28T04:08:26;100437.09;;;8.80;81.81
64841;BME280;51307;52.162;7.560;2023-12-28T04:10:51;100440.41;;;8.73;81.90
64841;BME280;51307;52.162;7.560;2023-12-28T04:13:16;100450.34;;;8.63;82.53
64841;BME280;51307;52.162;7.560;2023-12-28T04:15:42;100453.75;;;8.73;82.47
64841;BME280;51307;52.162;7.560;2023-12-28T04:18:08;100446.41;;;8.75;81.96
64841;BME280;51307;52.162;7.560;2023-12-28T04:20:33;100461.69;;;8.65;82.60
64841;BME280;51307;52.162;7.560;2023-12-28T04:22:59;100453.06;;;8.71;82.75
64841;BME280;51307;52.162;7.560;2023-12-28T04:25:24;100446.56;;;8.74;82.59
64841;BME280;51307;52.162;7.560;2023-12-28T04:27:50;100449.44;;;8.81;82.55
64841;BME280;51307;52.162;7.560;2023-12-28T04:30:15;100453.63;;;8.83;82.19
64841;BME280;51307;52.162;7.560;2023-12-28T04:32:41;100447.28;;;8.76;82.68
64841;BME280;51307;52.162;7.560;2023-12-28T04:35:06;100462.53;;;8.66;83.17
64841;BME280;51307;52.162;7.560;2023-12-28T04:37:32;100464.31;;;8.83;82.11
64841;BME280;51307;52.162;7.560;2023-12-28T04:39:58;100444.81;;;8.83;82.09
64841;BME280;51307;52.162;7.560;2023-12-28T04:42:24;100433.59;;;8.79;81.92
64841;BME280;51307;52.162;7.560;2023-12-28T04:44:49;100440.09;;;8.76;81.99
64841;BME280;51307;52.162;7.560;2023-12-28T04:47:15;100441.56;;;8.97;81.17
64841;BME280;51307;52.162;7.560;2023-12-28T04:49:40;100444.56;;;8.94;81.17
64841;BME280;51307;52.162;7.560;2023-12-28T04:52:06;100453.88;;;8.90;81.21
64841;BME280;51307;52.162;7.560;2023-12-28T04:54:31;100451.53;;;8.69;81.75
64841;BME280;51307;52.162;7.560;2023-12-28T04:56:58;100449.69;;;8.87;80.71
64841;BME280;51307;52.162;7.560;2023-12-28T04:59:24;100439.09;;;9.04;80.32
64841;BME280;51307;52.162;7.560;2023-12-28T05:01:49;100443.56;;;8.95;80.42
64841;BME280;51307;52.162;7.560;2023-12-28T05:04:15;100446.28;;;9.03;79.94
64841;BME280;51307;52.162;7.560;2023-12-28T05:06:40;100446.59;;;9.00;79.92
64841;BME280;51307;52.162;7.560;2023-12-28T05:09:06;100438.59;;;9.00;79.86
64841;BME280;51307;52.162;7.560;2023-12-28T05:11:31;100433.72;;;8.96;79.76
64841;BME280;51307;52.162;7.560;2023-12-28T05:13:57;100433.47;;;9.07;79.41
64841;BME280;51307;52.162;7.560;2023-12-28T05:16:22;100440.66;;;9.15;79.23
64841;BME280;51307;52.162;7.560;2023-12-28T05:18:48;100443.13;;;9.08;79.40
64841;BME280;51307;52.162;7.560;2023-12-28T05:21:13;100445.34;;;9.13;79.00
64841;BME280;51307;52.162;7.560;2023-12-28T05:23:39;100436.38;;;9.22;78.53
64841;BME280;51307;52.162;7.560;2023-12-28T05:26:05;100449.69;;;9.14;78.76
64841;BME280;51307;52.162;7.560;2023-12-28T05:28:31;100449.69;;;9.14;79.09
64841;BME280;51307;52.162;7.560;2023-12-28T05:30:57;100451.81;;;9.10;79.19
64841;BME280;51307;52.162;7.560;2023-12-28T05:33:26;100437.38;;;9.29;78.65
64841;BME280;51307;52.162;7.560;2023-12-28T05:35:52;100429.53;;;9.28;78.68
64841;BME280;51307;52.162;7.560;2023-12-28T05:38:17;100438.34;;;9.20;78.73
64841;BME280;51307;52.162;7.560;2023-12-28T05:40:43;100461.19;;;9.14;78.26
64841;BME280;51307;52.162;7.560;2023-12-28T05:43:10;100461.75;;;9.26;78.19
64841;BME280;51307;52.162;7.560;2023-12-28T05:45:36;100465.78;;;9.30;78.10
64841;BME280;51307;52.162;7.560;2023-12-28T05:48:01;100464.06;;;9.21;78.35
64841;BME280;51307;52.162;7.560;2023-12-28T05:50:27;100472.63;;;9.33;77.97
64841;BME280;51307;52.162;7.560;2023-12-28T05:52:52;100475.09;;;9.26;77.85
64841;BME280;51307;52.162;7.560;2023-12-28T05:55:18;100459.81;;;9.45;77.08
64841;BME280;51307;52.162;7.560;2023-12-28T05:57:43;100475.78;;;9.36;77.39
64841;BME280;51307;52.162;7.560;2023-12-28T06:00:13;100486.00;;;9.41;77.23
64841;BME280;51307;52.162;7.560;2023-12-28T06:02:39;100475.47;;;9.31;77.55
64841;BME280;51307;52.162;7.560;2023-12-28T06:05:04;100485.13;;;9.32;77.69
64841;BME280;51307;52.162;7.560;2023-12-28T06:07:30;100488.16;;;9.37;77.47
64841;BME280;51307;52.162;7.560;2023-12-28T06:09:55;100489.34;;;9.43;77.41
64841;BME280;51307;52.162;7.560;2023-12-28T06:12:20;100489.13;;;9.36;77.45
64841;BME280;51307;52.162;7.560;2023-12-28T06:14:46;100474.38;;;9.50;76.89
64841;BME280;51307;52.162;7.560;2023-12-28T06:17:11;100469.84;;;9.51;76.54
64841;BME280;51307;52.162;7.560;2023-12-28T06:19:37;100488.03;;;9.47;76.76
64841;BME280;51307;52.162;7.560;2023-12-28T06:22:03;100495.66;;;9.34;76.99
64841;BME280;51307;52.162;7.560;2023-12-28T06:24:28;100493.53;;;9.46;76.75
64841;BME280;51307;52.162;7.560;2023-12-28T06:26:54;100493.44;;;9.29;77.12
64841;BME280;51307;52.162;7.560;2023-12-28T06:29:19;100495.34;;;9.37;76.79
64841;BME280;51307;52.162;7.560;2023-12-28T06:31:45;100489.09;;;9.28;76.95
64841;BME280;51307;52.162;7.560;2023-12-28T06:34:10;100505.66;;;9.32;76.92
64841;BME280;51307;52.162;7.560;2023-12-28T06:36:36;100494.34;;;9.38;76.35
64841;BME280;51307;52.162;7.560;2023-12-28T06:39:01;100493.53;;;9.46;75.43
64841;BME280;51307;52.162;7.560;2023-12-28T06:41:27;100501.50;;;9.37;75.46
64841;BME280;51307;52.162;7.560;2023-12-28T06:43:53;100502.59;;;9.53;75.08
64841;BME280;51307;52.162;7.560;2023-12-28T06:46:18;100482.53;;;9.49;75.09
64841;BME280;51307;52.162;7.560;2023-12-28T06:48:45;100490.38;;;9.50;75.09
64841;BME280;51307;52.162;7.560;2023-12-28T06:51:16;100498.78;;;9.64;74.51
64841;BME280;51307;52.162;7.560;2023-12-28T06:53:43;100487.91;;;9.57;74.65
64841;BME280;51307;52.162;7.560;2023-12-28T06:56:09;100500.88;;;9.43;74.80
64841;BME280;51307;52.162;7.560;2023-12-28T06:58:34;100501.91;;;9.59;74.46
64841;BME280;51307;52.162;7.560;2023-12-28T07:01:03;100505.88;;;9.47;74.43
64841;BME280;51307;52.162;7.560;2023-12-28T07:03:28;100495.59;;;9.60;74.30
64841;BME280;51307;52.162;7.560;2023-12-28T07:06:00;100509.41;;;9.47;74.18
64841;BME280;51307;52.162;7.560;2023-12-28T07:08:26;100509.25;;;9.49;73.98
64841;BME280;51307;52.162;7.560;2023-12-28T07:10:52;100509.47;;;9.64;73.44
64841;BME280;51307;52.162;7.560;2023-12-28T07:13:17;100507.63;;;9.64;73.36
64841;BME280;51307;52.162;7.560;2023-12-28T07:15:43;100514.06;;;9.45;73.44
64841;BME280;51307;52.162;7.560;2023-12-28T07:18:08;100514.31;;;9.68;73.19
64841;BME280;51307;52.162;7.560;2023-12-28T07:20:34;100519.44;;;9.53;73.65
64841;BME280;51307;52.162;7.560;2023-12-28T07:22:59;100509.31;;;9.65;73.40
64841;BME280;51307;52.162;7.560;2023-12-28T07:25:25;100524.13;;;9.51;74.09
64841;BME280;51307;52.162;7.560;2023-12-28T07:27:50;100510.03;;;9.41;73.93
64841;BME280;51307;52.162;7.560;2023-12-28T07:30:16;100506.97;;;9.62;73.57
64841;BME280;51307;52.162;7.560;2023-12-28T07:32:43;100509.91;;;9.51;74.19
64841;BME280;51307;52.162;7.560;2023-12-28T07:35:10;100510.56;;;9.45;73.95
64841;BME280;51307;52.162;7.560;2023-12-28T07:37:35;100512.75;;;9.49;74.02
64841;BME280;51307;52.162;7.560;2023-12-28T07:40:01;100515.84;;;9.71;73.55
64841;BME280;51307;52.162;7.560;2023-12-28T07:42:28;100532.97;;;9.60;73.90
64841;BME280;51307;52.162;7.560;2023-12-28T07:44:54;100528.28;;;9.54;73.77
64841;BME280;51307;52.162;7.560;2023-12-28T07:47:19;100525.97;;;9.59;73.54
64841;BME280;51307;52.162;7.560;2023-12-28T07:49:45;100528.34;;;9.62;73.70
64841;BME280;51307;52.162;7.560;2023-12-28T07:52:10;100530.13;;;9.53;73.83
64841;BME280;51307;52.162;7.560;2023-12-28T07:54:36;100521.28;;;9.53;74.00
64841;BME280;51307;52.162;7.560;2023-12-28T07:57:01;100531.81;;;9.54;73.71
64841;BME280;51307;52.162;7.560;2023-12-28T07:59:27;100542.16;;;9.57;73.95
64841;BME280;51307;52.162;7.560;2023-12-28T08:01:53;100528.47;;;9.60;73.70
64841;BME280;51307;52.162;7.560;2023-12-28T08:04:18;100539.34;;;9.67;73.66
64841;BME280;51307;52.162;7.560;2023-12-28T08:06:44;100552.38;;;9.62;73.89
64841;BME280;51307;52.162;7.560;2023-12-28T08:09:09;100549.41;;;9.73;74.04
64841;BME280;51307;52.162;7.560;2023-12-28T08:11:35;100556.09;;;9.77;73.79
64841;BME280;51307;52.162;7.560;2023-12-28T08:14:00;100553.41;;;9.69;73.98
64841;BME280;51307;52.162;7.560;2023-12-28T08:16:26;100556.59;;;9.73;73.89
64841;BME280;51307;52.162;7.560;2023-12-28T08:18:52;100555.03;;;9.62;74.18
64841;BME280;51307;52.162;7.560;2023-12-28T08:21:17;100561.72;;;9.58;74.59
64841;BME280;51307;52.162;7.560;2023-12-28T08:23:43;100569.72;;;9.58;74.52
64841;BME280;51307;52.162;7.560;2023-12-28T08:26:09;100562.03;;;9.63;74.51
64841;BME280;51307;52.162;7.560;2023-12-28T08:28:35;100564.13;;;9.77;74.10
64841;BME280;51307;52.162;7.560;2023-12-28T08:31:00;100560.78;;;9.75;74.38
64841;BME280;51307;52.162;7.560;2023-12-28T08:33:26;100569.78;;;9.74;74.20
64841;BME280;51307;52.162;7.560;2023-12-28T08:35:51;100559.44;;;9.71;74.16
64841;BME280;51307;52.162;7.560;2023-12-28T08:38:17;100562.47;;;9.85;73.71
64841;BME280;51307;52.162;7.560;2023-12-28T08:40:42;100561.59;;;9.76;73.88
64841;BME280;51307;52.162;7.560;2023-12-28T08:43:09;100565.78;;;9.79;73.58
64841;BME280;51307;52.162;7.560;2023-12-28T08:45:35;100582.28;;;9.74;73.76
64841;BME280;51307;52.162;7.560;2023-12-28T08:48:02;100578.16;;;9.80;73.47
64841;BME280;51307;52.162;7.560;2023-12-28T08:50:27;100568.28;;;9.72;73.30
64841;BME280;51307;52.162;7.560;2023-12-28T08:52:53;100576.00;;;9.83;73.31
64841;BME280;51307;52.162;7.560;2023-12-28T08:55:18;100558.13;;;9.75;73.10
64841;BME280;51307;52.162;7.560;2023-12-28T08:57:44;100585.31;;;9.79;73.21
64841;BME280;51307;52.162;7.560;2023-12-28T09:00:10;100588.53;;;9.83;73.12
64841;BME280;51307;52.162;7.560;2023-12-28T09:02:36;100581.88;;;9.95;72.76
64841;BME280;51307;52.162;7.560;2023-12-28T09:05:02;100574.19;;;9.92;72.60
64841;BME280;51307;52.162;7.560;2023-12-28T09:07:28;100575.19;;;9.91;72.71
64841;BME280;51307;52.162;7.560;2023-12-28T09:09:53;100569.63;;;9.76;72.67
64841;BME280;51307;52.162;7.560;2023-12-28T09:12:19;100567.97;;;9.83;72.73
64841;BME280;51307;52.162;7.560;2023-12-28T09:14:44;100562.03;;;9.98;72.67
64841;BME280;51307;52.162;7.560;2023-12-28T09:17:11;100540.31;;;10.09;72.32
64841;BME280;51307;52.162;7.560;2023-12-28T09:19:36;100548.31;;;10.01;71.98
64841;BME280;51307;52.162;7.560;2023-12-28T09:22:03;100569.50;;;9.94;72.55
64841;BME280;51307;52.162;7.560;2023-12-28T09:24:29;100559.84;;;9.93;72.66
64841;BME280;51307;52.162;7.560;2023-12-28T09:26:54;100569.03;;;9.99;72.67
64841;BME280;51307;52.162;7.560;2023-12-28T09:29:20;100577.41;;;10.04;72.24
64841;BME280;51307;52.162;7.560;2023-12-28T09:31:45;100562.19;;;9.96;72.65
64841;BME280;51307;52.162;7.560;2023-12-28T09:34:11;100569.34;;;9.96;72.52
64841;BME280;51307;52.162;7.560;2023-12-28T09:36:36;100575.38;;;9.98;72.77
64841;BME280;51307;52.162;7.560;2023-12-28T09:39:02;100582.13;;;10.18;72.14
64841;BME280;51307;52.162;7.560;2023-12-28T09:41:36;100568.06;;;10.00;72.24
64841;BME280;51307;52.162;7.560;2023-12-28T09:44:11;100592.41;;;9.97;71.78
64841;BME280;51307;52.162;7.560;2023-12-28T09:46:37;100596.44;;;10.01;72.18
64841;BME280;51307;52.162;7.560;2023-12-28T09:49:04;100597.78;;;10.05;71.53
64841;BME280;51307;52.162;7.560;2023-12-28T09:51:30;100601.94;;;9.99;71.56
64841;BME280;51307;52.162;7.560;2023-12-28T09:53:56;100591.63;;;10.13;71.58
64841;BME280;51307;52.162;7.560;2023-12-28T09:56:22;100602.16;;;10.14;71.20
64841;BME280;51307;52.162;7.560;2023-12-28T09:58:49;100616.38;;;10.15;71.00
64841;BME280;51307;52.162;7.560;2023-12-28T10:01:17;100619.69;;;10.08;71.11
64841;BME280;51307;52.162;7.560;2023-12-28T10:03:43;100605.81;;;10.05;70.78
64841;BME280;51307;52.162;7.560;2023-12-28T10:06:08;100593.97;;;10.16;71.31
64841;BME280;51307;52.162;7.560;2023-12-28T10:08:34;100591.47;;;10.14;70.97
64841;BME280;51307;52.162;7.560;2023-12-28T10:11:02;100610.16;;;10.06;71.51
64841;BME280;51307;52.162;7.560;2023-12-28T10:13:28;100601.16;;;10.07;71.54
64841;BME280;51307;52.162;7.560;2023-12-28T10:15:57;100607.34;;;10.16;71.50
64841;BME280;51307;52.162;7.560;2023-12-28T10:18:23;100596.47;;;10.09;71.77
64841;BME280;51307;52.162;7.560;2023-12-28T10:20:50;100596.34;;;10.19;71.49
64841;BME280;51307;52.162;7.560;2023-12-28T10:23:17;100587.81;;;10.15;71.66
64841;BME280;51307;52.162;7.560;2023-12-28T10:25:43;100579.06;;;10.05;71.47
64841;BME280;51307;52.162;7.560;2023-12-28T10:28:10;100599.69;;;10.21;71.29
64841;BME280;51307;52.162;7.560;2023-12-28T10:30:38;100590.84;;;10.29;71.02
64841;BME280;51307;52.162;7.560;2023-12-28T10:33:06;100607.34;;;10.16;71.20
64841;BME280;51307;52.162;7.560;2023-12-28T10:35:32;100603.97;;;9.97;71.02
64841;BME280;51307;52.162;7.560;2023-12-28T10:38:00;100592.00;;;10.18;71.22
64841;BME280;51307;52.162;7.560;2023-12-28T10:40:28;100601.63;;;10.02;71.63
64841;BME280;51307;52.162;7.560;2023-12-28T10:43:02;100599.84;;;10.19;71.28
64841;BME280;51307;52.162;7.560;2023-12-28T10:45:32;100606.50;;;10.07;71.50
64841;BME280;51307;52.162;7.560;2023-12-28T10:48:09;100610.19;;;10.14;71.04
64841;BME280;51307;52.162;7.560;2023-12-28T10:53:34;100595.97;;;10.05;71.53
64841;BME280;51307;52.162;7.560;2023-12-28T10:56:55;100608.19;;;10.16;71.53
64841;BME280;51307;52.162;7.560;2023-12-28T11:01:51;100607.59;;;10.31;71.26
64841;BME280;51307;52.162;7.560;2023-12-28T11:06:47;100600.00;;;10.09;71.79
64841;BME280;51307;52.162;7.560;2023-12-28T11:09:15;100578.31;;;10.29;71.00
64841;BME280;51307;52.162;7.560;2023-12-28T11:11:43;100575.38;;;9.98;71.31
64841;BME280;51307;52.162;7.560;2023-12-28T11:14:09;100573.78;;;10.21;70.98
64841;BME280;51307;52.162;7.560;2023-12-28T11:16:37;100578.09;;;10.14;70.83
64841;BME280;51307;52.162;7.560;2023-12-28T11:19:05;100575.97;;;10.26;70.76
64841;BME280;51307;52.162;7.560;2023-12-28T11:21:33;100590.31;;;10.25;70.81
64841;BME280;51307;52.162;7.560;2023-12-28T11:23:59;100579.75;;;10.07;70.89
64841;BME280;51307;52.162;7.560;2023-12-28T11:26:25;100589.34;;;10.26;69.89
64841;BME280;51307;52.162;7.560;2023-12-28T11:29:03;100588.53;;;10.42;70.06
64841;BME280;51307;52.162;7.560;2023-12-28T11:31:33;100599.03;;;10.19;70.56
64841;BME280;51307;52.162;7.560;2023-12-28T11:34:04;100586.81;;;10.16;70.18
64841;BME280;51307;52.162;7.560;2023-12-28T11:36:34;100584.16;;;10.24;69.82
64841;BME280;51307;52.162;7.560;2023-12-28T11:39:05;100581.66;;;10.31;69.69
64841;BME280;51307;52.162;7.560;2023-12-28T11:41:36;100599.88;;;10.36;69.60
64841;BME280;51307;52.162;7.560;2023-12-28T11:44:03;100578.47;;;10.36;68.68
64841;BME280;51307;52.162;7.560;2023-12-28T11:46:32;100578.88;;;10.49;68.38
64841;BME280;51307;52.162;7.560;2023-12-28T11:49:08;100570.97;;;10.39;68.61
64841;BME280;51307;52.162;7.560;2023-12-28T11:51:36;100570.16;;;10.39;68.97
64841;BME280;51307;52.162;7.560;2023-12-28T11:54:03;100578.06;;;10.49;68.91
64841;BME280;51307;52.162;7.560;2023-12-28T11:56:30;100572.69;;;10.49;68.83
64841;BME280;51307;52.162;7.560;2023-12-28T11:58:56;100553.81;;;10.50;69.01
64841;BME280;51307;52.162;7.560;2023-12-28T12:01:21;100566.34;;;10.58;69.37
64841;BME280;51307;52.162;7.560;2023-12-28T12:03:48;100550.41;;;10.40;69.40
64841;BME280;51307;52.162;7.560;2023-12-28T12:06:14;100553.63;;;10.60;68.84
64841;BME280;51307;52.162;7.560;2023-12-28T12:08:39;100557.16;;;10.52;68.72
64841;BME280;51307;52.162;7.560;2023-12-28T12:11:06;100567.97;;;10.42;69.02
64841;BME280;51307;52.162;7.560;2023-12-28T12:13:32;100565.31;;;10.51;68.66
64841;BME280;51307;52.162;7.560;2023-12-28T12:15:58;100570.69;;;10.51;68.76
64841;BME280;51307;52.162;7.560;2023-12-28T12:18:25;100569.44;;;10.29;69.24
64841;BME280;51307;52.162;7.560;2023-12-28T12:20:51;100566.31;;;10.41;68.73
64841;BME280;51307;52.162;7.560;2023-12-28T12:23:16;100564.00;;;10.47;68.86
64841;BME280;51307;52.162;7.560;2023-12-28T12:25:42;100548.22;;;10.27;69.07
64841;BME280;51307;52.162;7.560;2023-12-28T12:28:10;100547.56;;;10.33;68.88
64841;BME280;51307;52.162;7.560;2023-12-28T12:30:36;100545.59;;;10.52;68.60
64841;BME280;51307;52.162;7.560;2023-12-28T12:33:02;100555.63;;;10.41;68.59
64841;BME280;51307;52.162;7.560;2023-12-28T12:35:28;100554.28;;;10.37;68.52
64841;BME280;51307;52.162;7.560;2023-12-28T12:37:54;100562.19;;;10.55;68.26
64841;BME280;51307;52.162;7.560;2023-12-28T12:40:20;100559.97;;;10.51;68.74
64841;BME280;51307;52.162;7.560;2023-12-28T12:42:55;100575.31;;;10.24;68.51
64841;BME280;51307;52.162;7.560;2023-12-28T12:45:21;100551.91;;;10.42;68.34
64841;BME280;51307;52.162;7.560;2023-12-28T12:47:47;100559.94;;;10.34;68.36
64841;BME280;51307;52.162;7.560;2023-12-28T12:50:14;100557.00;;;10.54;67.94
64841;BME280;51307;52.162;7.560;2023-12-28T12:52:41;100554.59;;;10.34;67.79
64841;BME280;51307;52.162;7.560;2023-12-28T12:55:13;100559.31;;;10.49;67.52
64841;BME280;51307;52.162;7.560;2023-12-28T12:57:40;100554.66;;;10.59;67.16
64841;BME280;51307;52.162;7.560;2023-12-28T13:00:06;100553.09;;;10.40;67.88
64841;BME280;51307;52.162;7.560;2023-12-28T13:02:34;100548.09;;;10.45;67.74
64841;BME280;51307;52.162;7.560;2023-12-28T13:05:03;100551.25;;;10.40;67.80